createdAt,value
2017-10-08T00:02:02.035Z,93.60
2017-10-08T00:04:29.506Z,93.60
2017-10-08T00:06:56.989Z,93.50
2017-10-08T00:09:25.317Z,93.50
2017-10-08T00:11:52.776Z,93.50
2017-10-08T00:14:20.314Z,93.50
2017-10-08T00:16:47.801Z,93.50
2017-10-08T00:19:15.340Z,93.70
2017-10-08T00:21:42.809Z,93.70
2017-10-08T00:24:10.270Z,93.70
2017-10-08T00:26:37.734Z,93.70
2017-10-08T00:29:05.200Z,93.70
2017-10-08T00:31:32.769Z,93.80
2017-10-08T00:34:00.269Z,93.90
2017-10-08T00:36:27.740Z,94.30
2017-10-08T00:38:55.205Z,94.10
2017-10-08T00:41:22.688Z,94.20
2017-10-08T00:43:50.330Z,94.10
2017-10-08T00:46:17.803Z,94.10
2017-10-08T00:48:46.036Z,94.20
2017-10-08T00:51:13.524Z,94.20
2017-10-08T00:53:41.004Z,94.10
2017-10-08T00:56:08.464Z,94.10
2017-10-08T00:58:37.455Z,94.20
2017-10-08T01:01:04.907Z,94.40
2017-10-08T01:03:32.869Z,94.10
2017-10-08T01:06:00.337Z,94.10
2017-10-08T01:08:27.807Z,94.10
2017-10-08T01:10:56.035Z,94.10
2017-10-08T01:13:23.533Z,94.10
2017-10-08T01:15:51.761Z,94.20
2017-10-08T01:18:19.228Z,94.10
2017-10-08T01:20:46.716Z,94.10
2017-10-08T01:23:14.948Z,94.10
2017-10-08T01:25:42.435Z,94.10
2017-10-08T01:28:09.941Z,94.10
2017-10-08T01:30:37.414Z,94.10
2017-10-08T01:33:04.880Z,94.10
2017-10-08T01:35:32.364Z,94.20
2017-10-08T01:37:59.862Z,94.10
2017-10-08T01:40:27.323Z,94.20
2017-10-08T01:42:54.985Z,93.90
2017-10-08T01:45:22.449Z,94.00
2017-10-08T01:47:49.916Z,93.90
2017-10-08T01:50:17.381Z,93.80
2017-10-08T01:52:44.929Z,93.80
2017-10-08T01:55:13.329Z,93.90
2017-10-08T01:57:40.800Z,93.90
2017-10-08T02:00:08.286Z,93.90
2017-10-08T02:02:36.513Z,93.90
2017-10-08T02:05:03.990Z,93.80
2017-10-08T02:07:31.455Z,93.80
2017-10-08T02:09:58.928Z,93.80
2017-10-08T02:12:27.156Z,93.80
2017-10-08T02:14:54.801Z,93.80
2017-10-08T02:17:22.264Z,94.00
2017-10-08T02:19:49.751Z,93.70
2017-10-08T02:22:17.230Z,93.60
2017-10-08T02:24:45.452Z,93.80
2017-10-08T02:27:12.938Z,93.80
2017-10-08T02:29:40.496Z,93.80
2017-10-08T02:32:07.964Z,93.80
2017-10-08T02:34:35.435Z,93.80
2017-10-08T02:37:03.856Z,93.90
2017-10-08T02:39:31.319Z,93.90
2017-10-08T02:41:58.808Z,93.80
2017-10-08T02:44:26.279Z,93.80
2017-10-08T02:46:53.744Z,93.90
2017-10-08T02:49:21.985Z,93.80
2017-10-08T02:51:49.463Z,93.80
2017-10-08T02:54:16.932Z,93.80
2017-10-08T02:59:19.913Z,94.00
2017-10-08T03:01:47.384Z,94.00
2017-10-08T03:04:15.642Z,94.10
2017-10-08T03:06:43.110Z,94.10
2017-10-08T03:09:10.586Z,94.20
2017-10-08T03:11:38.841Z,94.00
2017-10-08T03:14:07.813Z,93.90
2017-10-08T03:16:36.270Z,93.90
2017-10-08T03:19:03.728Z,93.80
2017-10-08T03:21:31.208Z,93.90
2017-10-08T03:23:58.672Z,94.00
2017-10-08T03:26:26.156Z,93.90
2017-10-08T03:28:54.388Z,94.00
2017-10-08T03:31:21.854Z,94.00
2017-10-08T03:33:49.333Z,94.00
2017-10-08T03:36:16.800Z,94.00
2017-10-08T03:38:45.052Z,94.00
2017-10-08T03:41:12.628Z,93.90
2017-10-08T03:43:40.875Z,94.00
2017-10-08T03:46:08.337Z,94.00
2017-10-08T03:48:35.819Z,93.90
2017-10-08T03:51:04.062Z,94.20
2017-10-08T03:53:31.531Z,94.00
2017-10-08T03:55:59.629Z,94.00
2017-10-08T03:58:28.005Z,94.00
2017-10-08T04:00:56.253Z,94.00
2017-10-08T04:03:23.737Z,94.00
2017-10-08T04:05:51.977Z,94.10
2017-10-08T04:08:19.445Z,94.10
2017-10-08T04:10:46.920Z,94.00
2017-10-08T04:13:15.160Z,93.90
2017-10-08T04:15:42.633Z,93.80
2017-10-08T04:18:10.146Z,93.80
2017-10-08T04:20:37.632Z,93.90
2017-10-08T04:23:05.102Z,94.00
2017-10-08T04:25:32.620Z,94.10
2017-10-08T04:28:00.079Z,93.90
2017-10-08T04:30:27.547Z,93.80
2017-10-08T04:32:55.017Z,93.70
2017-10-08T04:35:22.537Z,93.80
2017-10-08T04:37:50.021Z,93.90
2017-10-08T04:40:17.582Z,93.90
2017-10-08T04:42:45.025Z,93.70
2017-10-08T04:45:12.486Z,93.70
2017-10-08T04:47:39.997Z,93.70
2017-10-08T04:50:08.261Z,93.80
2017-10-08T04:52:35.742Z,93.80
2017-10-08T04:55:03.993Z,93.70
2017-10-08T04:57:31.468Z,93.70
2017-10-08T04:59:59.837Z,93.70
2017-10-08T05:02:28.088Z,93.90
2017-10-08T05:04:55.563Z,93.50
2017-10-08T05:07:23.825Z,93.70
2017-10-08T05:09:51.289Z,93.70
2017-10-08T05:12:18.748Z,93.80
2017-10-08T05:14:47.005Z,93.70
2017-10-08T05:17:14.475Z,93.70
2017-10-08T05:19:41.994Z,93.80
2017-10-08T05:22:09.492Z,93.80
2017-10-08T05:24:36.966Z,93.80
2017-10-08T05:27:05.197Z,94.00
2017-10-08T05:29:32.679Z,93.70
2017-10-08T05:32:00.140Z,93.70
2017-10-08T05:34:27.740Z,93.80
2017-10-08T05:36:55.373Z,93.80
2017-10-08T05:39:23.656Z,93.70
2017-10-08T05:41:52.000Z,93.70
2017-10-08T05:44:19.461Z,93.70
2017-10-08T05:46:46.938Z,93.70
2017-10-08T05:49:15.165Z,93.50
2017-10-08T05:51:42.648Z,93.70
2017-10-08T05:54:10.113Z,93.70
2017-10-08T05:56:37.594Z,93.50
2017-10-08T05:59:05.846Z,93.60
2017-10-08T06:01:33.362Z,93.60
2017-10-08T06:04:00.820Z,93.50
2017-10-08T06:06:28.309Z,93.40
2017-10-08T06:08:55.785Z,93.50
2017-10-08T06:11:24.754Z,93.30
2017-10-08T06:13:52.224Z,93.30
2017-10-08T06:16:19.705Z,93.30
2017-10-08T06:18:47.943Z,93.50
2017-10-08T06:21:15.409Z,93.50
2017-10-08T06:23:42.902Z,93.30
2017-10-08T06:26:11.279Z,93.40
2017-10-08T06:28:39.508Z,93.40
2017-10-08T06:31:06.996Z,93.40
2017-10-08T06:33:35.220Z,93.30
2017-10-08T06:36:02.696Z,93.30
2017-10-08T06:38:30.256Z,93.30
2017-10-08T06:40:57.741Z,93.40
2017-10-08T06:43:25.996Z,93.40
2017-10-08T06:45:53.468Z,93.40
2017-10-08T06:48:20.952Z,93.50
2017-10-08T06:50:48.425Z,93.90
2017-10-08T06:53:16.026Z,93.60
2017-10-08T06:55:43.504Z,93.60
2017-10-08T06:58:10.961Z,93.50
2017-10-08T07:00:39.222Z,93.20
2017-10-08T07:03:06.722Z,93.20
2017-10-08T07:05:34.187Z,93.00
2017-10-08T07:08:01.651Z,93.10
2017-10-08T07:10:29.213Z,93.10
2017-10-08T07:12:56.670Z,93.30
2017-10-08T07:15:24.153Z,93.00
2017-10-08T07:17:51.694Z,93.00
2017-10-08T07:20:19.174Z,93.20
2017-10-08T07:22:46.651Z,93.20
2017-10-08T07:25:14.111Z,93.00
2017-10-08T07:27:42.358Z,92.90
2017-10-08T07:30:09.817Z,92.90
2017-10-08T07:32:37.315Z,93.10
2017-10-08T07:35:05.529Z,92.90
2017-10-08T07:37:33.001Z,92.90
2017-10-08T07:40:00.536Z,93.10
2017-10-08T07:42:28.001Z,93.00
2017-10-08T07:44:55.612Z,93.00
2017-10-08T07:47:23.861Z,92.80
2017-10-08T07:49:51.334Z,92.80
2017-10-08T07:52:18.793Z,92.40
2017-10-08T07:54:47.044Z,91.90
2017-10-08T07:57:15.282Z,92.00
2017-10-08T07:59:42.774Z,92.00
2017-10-08T08:02:10.233Z,92.30
2017-10-08T08:04:37.696Z,92.40
2017-10-08T08:07:05.183Z,92.50
2017-10-08T08:09:33.415Z,92.60
2017-10-08T08:12:01.048Z,92.50
2017-10-08T08:14:28.648Z,92.70
2017-10-08T08:16:56.118Z,93.00
2017-10-08T08:19:24.377Z,92.80
2017-10-08T08:21:51.844Z,92.80
2017-10-08T08:24:19.295Z,92.80
2017-10-08T08:26:46.826Z,92.60
2017-10-08T08:29:15.333Z,92.60
2017-10-08T08:31:42.793Z,92.40
2017-10-08T08:34:11.894Z,92.90
2017-10-08T08:36:40.223Z,93.20
2017-10-08T08:39:07.681Z,92.90
2017-10-08T08:41:35.149Z,92.70
2017-10-08T08:44:02.648Z,92.40
2017-10-08T08:46:30.097Z,91.90
2017-10-08T08:48:57.556Z,91.30
2017-10-08T08:51:25.105Z,91.60
2017-10-08T08:53:52.557Z,92.00
2017-10-08T08:56:20.035Z,91.90
2017-10-08T08:58:48.280Z,91.20
2017-10-08T09:01:15.764Z,91.20
2017-10-08T09:03:43.229Z,90.50
2017-10-08T09:06:11.486Z,90.60
2017-10-08T09:08:38.989Z,90.60
2017-10-08T09:11:06.538Z,90.70
2017-10-08T09:13:34.008Z,90.60
2017-10-08T09:16:01.474Z,90.60
2017-10-08T09:18:29.061Z,90.60
2017-10-08T09:20:56.532Z,90.80
2017-10-08T09:23:24.017Z,91.40
2017-10-08T09:25:52.368Z,91.50
2017-10-08T09:28:19.830Z,91.50
2017-10-08T09:30:48.064Z,92.00
2017-10-08T09:33:15.547Z,91.70
2017-10-08T09:35:43.004Z,90.80
2017-10-08T09:38:10.472Z,91.00
2017-10-08T09:40:38.548Z,91.00
2017-10-08T09:43:06.018Z,90.70
2017-10-08T09:45:34.246Z,87.90
2017-10-08T09:48:01.719Z,87.80
2017-10-08T09:50:29.193Z,84.80
2017-10-08T09:52:58.151Z,82.70
2017-10-08T09:55:25.624Z,82.70
2017-10-08T09:57:53.216Z,83.80
2017-10-08T10:00:21.487Z,84.50
2017-10-08T10:02:49.118Z,84.50
2017-10-08T10:05:16.577Z,83.50
2017-10-08T10:07:44.049Z,83.60
2017-10-08T10:10:11.564Z,81.40
2017-10-08T10:12:39.021Z,82.70
2017-10-08T10:15:06.512Z,83.10
2017-10-08T10:17:34.009Z,84.50
2017-10-08T10:20:02.229Z,85.00
2017-10-08T10:22:29.711Z,85.00
2017-10-08T10:24:57.168Z,84.40
2017-10-08T10:27:25.429Z,84.90
2017-10-08T10:29:52.879Z,84.40
2017-10-08T10:32:20.358Z,84.50
2017-10-08T10:34:48.587Z,85.90
2017-10-08T10:37:16.047Z,85.40
2017-10-08T10:39:43.520Z,85.60
2017-10-08T10:42:11.003Z,84.50
2017-10-08T10:44:39.217Z,85.40
2017-10-08T10:47:06.694Z,85.30
2017-10-08T10:49:34.160Z,86.70
2017-10-08T10:52:01.738Z,86.00
2017-10-08T10:54:29.206Z,85.70
2017-10-08T10:56:56.674Z,85.60
2017-10-08T10:59:24.906Z,85.50
2017-10-08T11:01:52.388Z,85.50
2017-10-08T11:04:20.584Z,85.00
2017-10-08T11:06:48.834Z,85.20
2017-10-08T11:09:16.308Z,85.10
2017-10-08T11:11:44.536Z,83.70
2017-10-08T11:14:12.033Z,83.60
2017-10-08T11:16:39.501Z,82.80
2017-10-08T11:19:07.830Z,82.80
2017-10-08T11:21:35.295Z,82.60
2017-10-08T11:24:02.770Z,79.60
2017-10-08T11:26:30.242Z,78.30
2017-10-08T11:28:58.483Z,78.20
2017-10-08T11:31:25.948Z,78.20
2017-10-08T11:33:53.408Z,79.00
2017-10-08T11:36:21.072Z,79.80
2017-10-08T11:38:48.554Z,79.80
2017-10-08T11:41:16.788Z,79.30
2017-10-08T11:43:44.321Z,79.30
2017-10-08T11:46:12.294Z,79.00
2017-10-08T11:48:39.759Z,80.60
2017-10-08T11:51:07.221Z,80.40
2017-10-08T11:53:34.691Z,77.60
2017-10-08T11:56:02.201Z,79.20
2017-10-08T11:58:30.430Z,79.80
2017-10-08T12:00:57.920Z,79.80
2017-10-08T12:03:25.370Z,80.10
2017-10-08T12:05:53.625Z,78.70
2017-10-08T12:08:21.101Z,78.60
2017-10-08T12:10:49.467Z,78.80
2017-10-08T12:13:16.990Z,78.70
2017-10-08T12:15:44.445Z,78.40
2017-10-08T12:18:11.923Z,78.90
2017-10-08T12:20:39.389Z,79.90
2017-10-08T12:23:06.981Z,79.90
2017-10-08T12:25:35.222Z,80.10
2017-10-08T12:28:02.679Z,80.10
2017-10-08T12:30:31.646Z,80.40
2017-10-08T12:32:59.300Z,80.40
2017-10-08T12:35:26.773Z,80.90
2017-10-08T12:37:54.236Z,80.40
2017-10-08T12:40:21.701Z,80.90
2017-10-08T12:42:49.183Z,81.30
2017-10-08T12:45:17.423Z,82.00
2017-10-08T12:47:44.893Z,82.00
2017-10-08T12:50:12.410Z,81.80
2017-10-08T12:52:39.874Z,81.70
2017-10-08T12:55:07.325Z,81.40
2017-10-08T12:57:34.803Z,81.00
2017-10-08T13:00:02.948Z,81.40
2017-10-08T13:02:30.508Z,81.90
2017-10-08T13:04:57.999Z,82.00
2017-10-08T13:07:25.467Z,82.70
2017-10-08T13:09:53.725Z,81.20
2017-10-08T13:12:21.204Z,81.80
2017-10-08T13:14:48.696Z,81.40
2017-10-08T13:17:16.172Z,82.60
2017-10-08T13:19:43.629Z,82.10
2017-10-08T13:22:11.094Z,81.50
2017-10-08T13:24:38.543Z,81.50
2017-10-08T13:27:06.052Z,82.50
2017-10-08T13:29:34.412Z,82.80
2017-10-08T13:32:02.649Z,82.30
2017-10-08T13:34:30.114Z,82.30
2017-10-08T13:36:57.591Z,80.90
2017-10-08T13:39:25.087Z,81.40
2017-10-08T13:41:53.317Z,81.60
2017-10-08T13:44:20.786Z,81.50
2017-10-08T13:46:48.253Z,80.60
2017-10-08T13:49:15.733Z,80.50
2017-10-08T13:51:43.953Z,79.00
2017-10-08T13:54:11.431Z,78.90
2017-10-08T13:56:38.891Z,77.60
2017-10-08T13:59:08.579Z,76.40
2017-10-08T14:01:36.061Z,76.40
2017-10-08T14:04:03.530Z,76.40
2017-10-08T14:06:30.985Z,76.30
2017-10-08T14:08:59.241Z,77.90
2017-10-08T14:11:26.759Z,77.80
2017-10-08T14:13:54.243Z,78.50
2017-10-08T14:16:21.741Z,78.60
2017-10-08T14:18:49.192Z,78.50
2017-10-08T14:21:17.437Z,79.20
2017-10-08T14:23:45.024Z,79.10
2017-10-08T14:26:12.489Z,78.80
2017-10-08T14:28:40.717Z,79.10
2017-10-08T14:31:08.371Z,79.00
2017-10-08T14:33:35.821Z,79.30
2017-10-08T14:36:03.302Z,80.40
2017-10-08T14:38:30.765Z,80.10
2017-10-08T14:40:58.233Z,80.50
2017-10-08T14:43:25.785Z,79.30
2017-10-08T14:45:54.074Z,81.00
2017-10-08T14:48:21.651Z,81.00
2017-10-08T14:50:49.112Z,81.80
2017-10-08T14:53:17.353Z,80.70
2017-10-08T14:55:44.857Z,80.60
2017-10-08T14:58:12.335Z,81.60
2017-10-08T15:00:39.819Z,81.70
2017-10-08T15:03:07.344Z,81.20
2017-10-08T15:05:34.801Z,82.30
2017-10-08T15:08:02.269Z,81.70
2017-10-08T15:10:29.761Z,81.20
2017-10-08T15:12:57.996Z,81.40
2017-10-08T15:15:35.380Z,81.40
2017-10-08T15:18:02.868Z,81.90
2017-10-08T15:20:30.329Z,81.90
2017-10-08T15:22:57.793Z,81.40
2017-10-08T15:25:26.046Z,81.60
2017-10-08T15:27:53.508Z,81.50
2017-10-08T15:30:21.005Z,81.40
2017-10-08T15:32:49.413Z,81.70
2017-10-08T15:35:16.889Z,81.70
2017-10-08T15:37:44.356Z,81.80
2017-10-08T15:40:11.927Z,81.60
2017-10-08T15:42:40.908Z,81.10
2017-10-08T15:45:08.495Z,81.10
2017-10-08T15:47:35.995Z,81.80
2017-10-08T15:50:03.451Z,81.10
2017-10-08T15:52:31.044Z,80.20
2017-10-08T15:54:58.514Z,80.10
2017-10-08T15:57:26.009Z,80.00
2017-10-08T15:59:54.239Z,79.40
2017-10-08T16:02:21.713Z,79.40
2017-10-08T16:04:49.962Z,78.90
2017-10-08T16:07:17.432Z,79.40
2017-10-08T16:09:45.695Z,80.50
2017-10-08T16:12:13.172Z,80.50
2017-10-08T16:14:40.632Z,80.50
2017-10-08T16:17:08.093Z,79.40
2017-10-08T16:19:36.349Z,79.30
2017-10-08T16:22:03.836Z,79.20
2017-10-08T16:24:32.074Z,79.70
2017-10-08T16:26:59.552Z,79.60
2017-10-08T16:29:27.137Z,79.20
2017-10-08T16:31:55.389Z,79.90
2017-10-08T16:34:22.857Z,79.90
2017-10-08T16:36:51.111Z,79.00
2017-10-08T16:39:18.571Z,78.90
2017-10-08T16:41:46.050Z,79.60
2017-10-08T16:44:14.290Z,80.30
2017-10-08T16:46:41.754Z,80.30
2017-10-08T16:49:09.237Z,80.70
2017-10-08T16:51:37.991Z,80.30
2017-10-08T16:54:05.445Z,80.30
2017-10-08T16:56:33.041Z,80.70
2017-10-08T16:59:01.273Z,81.60
2017-10-08T17:01:28.740Z,81.60
2017-10-08T17:03:56.202Z,81.80
2017-10-08T17:06:23.674Z,81.70
2017-10-08T17:08:51.125Z,81.70
2017-10-08T17:11:18.601Z,80.90
2017-10-08T17:13:46.832Z,81.20
2017-10-08T17:16:14.304Z,81.20
2017-10-08T17:18:41.788Z,81.10
2017-10-08T17:21:10.024Z,80.60
2017-10-08T17:23:37.509Z,80.60
2017-10-08T17:26:04.973Z,81.10
2017-10-08T17:28:33.234Z,81.30
2017-10-08T17:31:01.485Z,80.60
2017-10-08T17:33:28.952Z,80.60
2017-10-08T17:35:56.523Z,81.70
2017-10-08T17:38:23.979Z,80.40
2017-10-08T17:40:51.454Z,80.50
2017-10-08T17:43:19.676Z,79.20
2017-10-08T17:45:47.193Z,79.20
2017-10-08T17:48:15.422Z,79.30
2017-10-08T17:50:42.892Z,79.30
2017-10-08T17:53:11.133Z,78.60
2017-10-08T17:55:38.612Z,78.70
2017-10-08T17:58:06.109Z,79.20
2017-10-08T18:00:34.344Z,79.50
2017-10-08T18:03:02.045Z,79.50
2017-10-08T18:05:30.301Z,78.90
2017-10-08T18:07:57.812Z,78.80
2017-10-08T18:10:26.219Z,79.80
2017-10-08T18:12:53.694Z,79.80
2017-10-08T18:15:23.297Z,80.00
2017-10-08T18:17:50.953Z,80.10
2017-10-08T18:20:18.432Z,80.40
2017-10-08T18:22:46.672Z,80.20
2017-10-08T18:25:14.221Z,80.20
2017-10-08T18:27:45.449Z,79.60
2017-10-08T18:30:12.918Z,80.40
2017-10-08T18:32:40.533Z,80.30
2017-10-08T18:35:08.779Z,81.20
2017-10-08T18:37:36.269Z,81.20
2017-10-08T18:40:04.641Z,81.00
2017-10-08T18:42:32.103Z,81.00
2017-10-08T18:45:00.343Z,81.00
2017-10-08T18:47:27.821Z,81.00
2017-10-08T18:49:55.306Z,80.40
2017-10-08T18:52:22.802Z,79.70
2017-10-08T18:54:50.307Z,80.40
2017-10-08T18:57:18.572Z,81.20
2017-10-08T18:59:46.049Z,81.20
2017-10-08T19:02:13.519Z,80.70
2017-10-08T19:04:41.000Z,80.80
2017-10-08T19:07:08.529Z,81.00
2017-10-08T19:09:36.104Z,81.70
2017-10-08T19:12:03.586Z,82.00
2017-10-08T19:14:31.078Z,81.20
2017-10-08T19:16:59.330Z,82.60
2017-10-08T19:19:26.818Z,82.50
2017-10-08T19:21:55.070Z,82.90
2017-10-08T19:24:22.531Z,82.80
2017-10-08T19:26:50.046Z,82.70
2017-10-08T19:29:17.525Z,83.50
2017-10-08T19:31:45.138Z,82.90
2017-10-08T19:34:12.601Z,83.10
2017-10-08T19:36:40.080Z,83.00
2017-10-08T19:39:07.551Z,83.10
2017-10-08T19:41:35.292Z,83.10
2017-10-08T19:44:02.765Z,82.60
2017-10-08T19:46:30.242Z,82.60
2017-10-08T19:48:57.754Z,82.50
2017-10-08T19:51:25.220Z,82.40
2017-10-08T19:53:52.681Z,83.20
2017-10-08T19:56:20.170Z,83.10
2017-10-08T19:58:47.644Z,83.30
2017-10-08T20:01:15.902Z,83.40
2017-10-08T20:03:43.529Z,83.40
2017-10-08T20:06:10.991Z,83.50
2017-10-08T20:08:38.460Z,83.50
2017-10-08T20:11:05.947Z,84.00
2017-10-08T20:13:33.609Z,84.20
2017-10-08T20:16:01.076Z,84.40
2017-10-08T20:18:29.331Z,85.40
2017-10-08T20:20:56.809Z,85.40
2017-10-08T20:23:25.065Z,86.60
2017-10-08T20:25:55.607Z,86.00
2017-10-08T20:28:23.092Z,86.50
2017-10-08T20:30:57.041Z,86.40
2017-10-08T20:33:24.528Z,87.00
2017-10-08T20:35:57.119Z,87.10
2017-10-08T20:38:25.564Z,87.20
2017-10-08T20:40:53.040Z,87.20
2017-10-08T20:43:21.321Z,87.50
2017-10-08T20:45:48.971Z,88.00
2017-10-08T20:48:17.222Z,89.00
2017-10-08T20:50:44.704Z,89.00
2017-10-08T20:53:12.170Z,89.10
2017-10-08T20:55:40.469Z,89.20
2017-10-08T20:58:10.686Z,89.20
2017-10-08T21:00:38.207Z,89.30
2017-10-08T21:03:07.218Z,89.20
2017-10-08T21:05:35.460Z,89.40
2017-10-08T21:08:02.956Z,89.40
2017-10-08T21:10:31.198Z,89.30
2017-10-08T21:12:58.701Z,89.30
2017-10-08T21:15:26.931Z,89.60
2017-10-08T21:17:55.496Z,89.60
2017-10-08T21:20:23.255Z,89.60
2017-10-08T21:22:50.833Z,89.90
2017-10-08T21:25:18.326Z,90.00
2017-10-08T21:27:46.575Z,90.00
2017-10-08T21:30:14.071Z,90.00
2017-10-08T21:32:42.307Z,90.00
2017-10-08T21:35:09.795Z,90.00
2017-10-08T21:37:38.051Z,89.80
2017-10-08T21:40:05.665Z,89.70
2017-10-08T21:42:33.150Z,89.70
2017-10-08T21:45:00.633Z,90.00
2017-10-08T21:47:29.003Z,89.30
2017-10-08T21:49:56.469Z,89.30
2017-10-08T21:52:24.737Z,89.40
2017-10-08T21:54:52.204Z,88.80
2017-10-08T21:57:20.453Z,88.50
2017-10-08T21:59:47.917Z,88.50
2017-10-08T22:02:15.390Z,89.00
2017-10-08T22:04:43.633Z,88.80
2017-10-08T22:07:11.117Z,88.80
2017-10-08T22:09:40.092Z,88.30
2017-10-08T22:12:07.564Z,88.20
2017-10-08T22:14:35.048Z,88.80
2017-10-08T22:17:03.281Z,89.00
2017-10-08T22:19:30.910Z,89.00
2017-10-08T22:21:58.388Z,88.90
2017-10-08T22:24:25.851Z,88.80
2017-10-08T22:26:53.386Z,89.10
2017-10-08T22:29:20.858Z,88.50
2017-10-08T22:31:48.420Z,88.40
2017-10-08T22:34:15.912Z,87.80
2017-10-08T22:36:44.142Z,87.40
2017-10-08T22:39:11.709Z,87.30
2017-10-08T22:41:39.181Z,87.10
2017-10-08T22:44:06.669Z,87.10
2017-10-08T22:46:34.894Z,87.10
2017-10-08T22:49:02.352Z,87.00
2017-10-08T22:51:30.006Z,87.40
2017-10-08T22:53:57.481Z,87.20
2017-10-08T22:56:24.948Z,87.20
2017-10-08T22:58:52.409Z,87.90
2017-10-08T23:01:20.645Z,88.30
2017-10-08T23:03:48.127Z,88.30
2017-10-08T23:06:15.596Z,88.30
2017-10-08T23:08:43.064Z,88.50
2017-10-08T23:11:11.317Z,89.10
2017-10-08T23:13:38.949Z,88.90
2017-10-08T23:16:06.424Z,89.40
2017-10-08T23:18:33.901Z,89.10
2017-10-08T23:21:02.168Z,89.30
2017-10-08T23:23:29.635Z,89.30
2017-10-08T23:25:57.877Z,88.90
2017-10-08T23:28:25.346Z,88.80
2017-10-08T23:30:52.875Z,88.70
2017-10-08T23:33:20.435Z,88.60
2017-10-08T23:35:47.901Z,88.80
2017-10-08T23:38:15.384Z,89.30
2017-10-08T23:40:43.356Z,88.10
2017-10-08T23:43:10.830Z,88.10
2017-10-08T23:45:38.284Z,87.90
2017-10-08T23:48:06.561Z,88.80
2017-10-08T23:50:34.788Z,88.30
2017-10-08T23:53:02.261Z,88.20
2017-10-08T23:55:29.742Z,87.90
2017-10-08T23:57:57.217Z,88.40
